Saline County Regional Airport
KSUZ : now visible

Airfield :











YOU CAN JOIN US ON...

 
LOGIN :

Register | Disclaimer

   EN    FR    IT 

 









Legend :    VFR   Marginal VFR   IFR   Intensive IFR   Very Intensive IFR
Visi :
Ceiling :
>= 8 km
>= 3000ft
5 to 8 km
1000 to 3000 ft
1500m to 5 km
500 to 1000 ft
800 to 1500m
200 to 500 ft
< 800m
< 200 ft
Symbols :   Thunderstorms  Fog  Heavy snow  Heavy precipitations  Wind > 20 kt






- Airport Elevation : 390 ft


KSUZ - Saline County Regional

CURRENT METAR :
  • 070215Z AUTO 00000KT 10SM SCT050 SCT060 09/06 A3026 RMK A01

EXPIRED METARs :
  • 070155Z AUTO 36003KT 10SM SCT050 SCT055 10/06 A3025 RMK A01
  • 070135Z AUTO 05004KT 10SM FEW050 FEW055 11/07 A3024 RMK A01
  • 070115Z AUTO 02004KT 10SM SCT050 11/07 A3023 RMK A01
  • 070055Z AUTO 02004KT 10SM FEW055 10/07 A3022 RMK A01
  • 070035Z AUTO 01004KT 8SM CLR 11/07 A3022 RMK A01
  • 070015Z AUTO 00000KT 10SM FEW043 SCT050 10/07 A3021 RMK A01
  • 062355Z AUTO 00000KT 10SM SCT048 SCT055 13/08 A3020 RMK A01
  • 062335Z AUTO 05003KT 10SM CLR 12/08 A3019 RMK A01

TAF N/A



MET'MAP, your aeronautical weather chart ! - Copyright ORBIFLY December 2007 - Disclaimer

ORBIFLY MET'MAP TEAM :

Programming & Development : Alexandra Zaïnal
Concept & original design : Baudouin d'Aumeries
Assistance for programming : Marc-Olivier Méhu
Technical & hardware support : Manuel Goepfert

Contact : metmap@orbifly.com




SOURCES & CREDITS :

   NOAA       Earth
Advisory